createdAt,value
2018-05-24T00:00:32.540Z,3.17
2018-05-24T00:02:58.685Z,3.60
2018-05-24T00:05:24.843Z,3.40
2018-05-24T00:07:51.031Z,3.40
2018-05-24T00:10:17.179Z,3.57
2018-05-24T00:12:43.354Z,3.27
2018-05-24T00:15:09.497Z,3.80
2018-05-24T00:17:37.138Z,3.37
2018-05-24T00:20:03.323Z,3.50
2018-05-24T00:22:29.490Z,3.43
2018-05-24T00:24:55.667Z,3.70
2018-05-24T00:27:21.823Z,3.40
2018-05-24T00:29:48.722Z,3.47
2018-05-24T00:32:14.888Z,3.67
2018-05-24T00:34:41.049Z,3.57
2018-05-24T00:37:07.207Z,3.37
2018-05-24T00:39:33.406Z,3.13
2018-05-24T00:42:00.357Z,3.23
2018-05-24T00:44:26.512Z,3.37
2018-05-24T00:46:52.742Z,3.30
2018-05-24T00:49:18.888Z,3.80
2018-05-24T00:51:45.027Z,3.00
2018-05-24T00:54:11.211Z,3.33
2018-05-24T00:56:37.363Z,3.47
2018-05-24T00:59:03.506Z,3.50
2018-05-24T01:01:29.662Z,3.20
2018-05-24T01:03:55.901Z,3.40
2018-05-24T01:06:21.975Z,3.33
2018-05-24T01:08:48.120Z,3.43
2018-05-24T01:11:14.287Z,3.63
2018-05-24T01:13:40.481Z,3.30
2018-05-24T01:16:06.653Z,3.20
2018-05-24T01:18:33.101Z,2.97
2018-05-24T01:20:59.278Z,3.00
2018-05-24T01:23:25.450Z,3.03
2018-05-24T01:25:51.619Z,3.10
2018-05-24T01:28:17.779Z,3.30
2018-05-24T01:30:43.930Z,3.07
2018-05-24T01:33:10.076Z,3.00
2018-05-24T01:35:36.261Z,3.20
2018-05-24T01:38:03.195Z,3.07
2018-05-24T01:40:29.370Z,2.83
2018-05-24T01:42:55.525Z,3.30
2018-05-24T01:45:21.696Z,3.27
2018-05-24T01:47:47.849Z,3.20
2018-05-24T01:50:14.602Z,3.50
2018-05-24T01:52:40.762Z,3.27
2018-05-24T01:55:06.941Z,3.10
2018-05-24T01:57:33.103Z,3.40
2018-05-24T01:59:59.251Z,3.00
2018-05-24T02:02:25.429Z,3.20
2018-05-24T02:04:51.576Z,3.27
2018-05-24T02:07:18.471Z,3.23
2018-05-24T02:09:44.641Z,3.10
2018-05-24T02:12:10.815Z,3.27
2018-05-24T02:14:36.962Z,2.70
2018-05-24T02:17:03.104Z,2.80
2018-05-24T02:19:29.324Z,3.10
2018-05-24T02:21:55.520Z,3.20
2018-05-24T02:24:21.662Z,3.00
2018-05-24T02:26:48.566Z,3.07
2018-05-24T02:29:14.763Z,3.00
2018-05-24T02:31:40.910Z,3.43
2018-05-24T02:34:07.080Z,2.93
2018-05-24T02:36:33.239Z,3.13
2018-05-24T02:39:00.149Z,2.73
2018-05-24T02:41:27.371Z,3.20
2018-05-24T02:43:53.557Z,3.10
2018-05-24T02:46:19.731Z,3.10
2018-05-24T02:48:45.934Z,3.03
2018-05-24T02:51:12.118Z,3.10
2018-05-24T02:53:38.285Z,3.10
2018-05-24T02:56:04.442Z,3.10
2018-05-24T02:58:31.348Z,3.10
2018-05-24T03:00:57.508Z,3.10
2018-05-24T03:03:23.651Z,2.90
2018-05-24T03:05:49.803Z,2.80
2018-05-24T03:08:16.001Z,3.43
2018-05-24T03:10:42.219Z,3.17
2018-05-24T03:13:08.361Z,3.27
2018-05-24T03:15:34.551Z,2.90
2018-05-24T03:18:00.695Z,3.30
2018-05-24T03:20:26.840Z,3.27
2018-05-24T03:22:53.000Z,3.00
2018-05-24T03:25:19.164Z,3.40
2018-05-24T03:27:45.333Z,3.20
2018-05-24T03:30:11.545Z,3.00
2018-05-24T03:32:37.727Z,3.43
2018-05-24T03:35:03.912Z,3.17
2018-05-24T03:37:30.089Z,3.27
2018-05-24T03:39:56.251Z,3.00
2018-05-24T03:42:22.422Z,3.00
2018-05-24T03:44:48.580Z,2.77
2018-05-24T03:47:14.742Z,3.23
2018-05-24T03:49:41.635Z,3.00
2018-05-24T03:52:07.882Z,2.77
2018-05-24T03:54:33.956Z,2.87
2018-05-24T03:57:00.104Z,3.03
2018-05-24T04:03:01.483Z,2.97
2018-05-24T04:05:27.635Z,2.73
2018-05-24T04:07:53.795Z,2.83
2018-05-24T04:10:21.134Z,3.43
2018-05-24T04:12:47.284Z,3.07
2018-05-24T04:15:14.203Z,3.00
2018-05-24T04:17:40.372Z,3.27
2018-05-24T04:20:06.520Z,3.40
2018-05-24T04:22:32.706Z,2.90
2018-05-24T04:24:59.225Z,3.50
2018-05-24T04:27:26.375Z,3.07
2018-05-24T04:29:52.819Z,3.17
2018-05-24T04:32:19.147Z,3.23
2018-05-24T04:34:45.587Z,3.03
2018-05-24T04:37:13.002Z,3.20
2018-05-24T04:39:39.603Z,3.23
2018-05-24T04:42:05.958Z,3.17
2018-05-24T04:44:32.380Z,3.20
2018-05-24T04:46:58.796Z,3.50
2018-05-24T04:49:25.240Z,3.23
2018-05-24T04:51:51.381Z,3.50
2018-05-24T04:54:18.144Z,3.47
2018-05-24T04:56:44.664Z,3.53
2018-05-24T04:59:11.205Z,3.13
2018-05-24T05:01:38.263Z,3.30
2018-05-24T05:04:04.808Z,3.10
2018-05-24T05:06:31.341Z,2.93
2018-05-24T05:08:59.027Z,3.03
2018-05-24T05:11:27.482Z,3.37
2018-05-24T05:13:54.490Z,3.27
2018-05-24T05:16:20.935Z,3.03
2018-05-24T05:18:47.239Z,3.40
2018-05-24T05:21:13.414Z,3.50
2018-05-24T05:23:39.593Z,3.20
2018-05-24T05:26:05.769Z,3.33
2018-05-24T05:28:32.132Z,3.60
2018-05-24T05:30:58.387Z,3.10
2018-05-24T05:33:24.581Z,3.70
2018-05-24T05:35:50.787Z,3.10
2018-05-24T05:38:17.770Z,3.10
2018-05-24T05:40:43.879Z,3.40
2018-05-24T05:43:10.033Z,3.50
2018-05-24T05:45:36.195Z,3.40
2018-05-24T05:48:02.379Z,3.80
2018-05-24T05:50:29.276Z,3.60
2018-05-24T05:52:55.579Z,3.30
2018-05-24T05:55:21.739Z,3.20
2018-05-24T05:57:47.892Z,3.53
2018-05-24T06:00:14.038Z,3.50
2018-05-24T06:02:40.201Z,3.50
2018-05-24T06:05:06.364Z,3.07
2018-05-24T06:07:32.584Z,3.33
2018-05-24T06:09:58.754Z,3.60
2018-05-24T06:12:24.917Z,3.57
2018-05-24T06:14:51.093Z,3.57
2018-05-24T06:17:17.254Z,3.83
2018-05-24T06:19:43.420Z,3.97
2018-05-24T06:22:09.578Z,4.00
2018-05-24T06:24:35.735Z,3.57
2018-05-24T06:27:01.921Z,3.47
2018-05-24T06:29:28.075Z,3.40
2018-05-24T06:31:54.252Z,3.60
2018-05-24T06:34:21.161Z,3.60
2018-05-24T06:36:47.357Z,3.53
2018-05-24T06:39:13.505Z,4.33
2018-05-24T06:41:39.651Z,3.77
2018-05-24T06:44:05.822Z,4.03
2018-05-24T06:46:32.075Z,3.50
2018-05-24T06:48:58.182Z,3.83
2018-05-24T06:51:24.325Z,3.53
2018-05-24T06:53:50.506Z,3.83
2018-05-24T06:56:16.670Z,3.70
2018-05-24T06:58:42.856Z,3.80
2018-05-24T07:01:09.060Z,3.73
2018-05-24T07:03:35.230Z,4.03
2018-05-24T07:06:01.521Z,4.00
2018-05-24T07:08:28.197Z,3.40
2018-05-24T07:10:55.105Z,3.77
2018-05-24T07:13:21.265Z,4.07
2018-05-24T07:15:47.431Z,3.93
2018-05-24T07:18:14.494Z,3.90
2018-05-24T07:20:40.699Z,3.83
2018-05-24T07:23:06.858Z,4.00
2018-05-24T07:25:33.028Z,3.70
2018-05-24T07:28:00.678Z,4.20
2018-05-24T07:30:26.864Z,4.03
2018-05-24T07:32:53.048Z,4.30
2018-05-24T07:35:19.219Z,4.03
2018-05-24T07:37:45.409Z,3.90
2018-05-24T07:40:11.542Z,4.10
2018-05-24T07:42:37.708Z,3.67
2018-05-24T07:45:03.937Z,4.03
2018-05-24T07:47:30.030Z,3.93
2018-05-24T07:49:56.189Z,3.93
2018-05-24T07:52:22.371Z,4.00
2018-05-24T07:54:48.557Z,4.47
2018-05-24T07:57:14.776Z,4.03
2018-05-24T07:59:40.930Z,3.90
2018-05-24T08:02:07.086Z,4.17
2018-05-24T08:04:33.243Z,4.03
2018-05-24T08:06:59.412Z,4.20
2018-05-24T08:09:25.552Z,4.30
2018-05-24T08:11:51.719Z,4.03
2018-05-24T08:14:18.667Z,4.60
2018-05-24T08:16:45.543Z,4.30
2018-05-24T08:19:11.735Z,4.20
2018-05-24T08:21:37.914Z,4.30
2018-05-24T08:24:04.072Z,4.50
2018-05-24T08:26:30.271Z,4.37
2018-05-24T08:28:56.500Z,4.60
2018-05-24T08:31:22.718Z,4.20
2018-05-24T08:33:48.904Z,4.63
2018-05-24T08:36:15.069Z,4.80
2018-05-24T08:38:41.207Z,5.10
2018-05-24T08:41:07.354Z,4.53
2018-05-24T08:43:33.506Z,4.70
2018-05-24T08:45:59.672Z,5.10
2018-05-24T08:48:25.859Z,4.43
2018-05-24T08:50:52.012Z,5.00
2018-05-24T08:53:18.215Z,5.03
2018-05-24T08:55:44.365Z,4.90
2018-05-24T08:58:10.530Z,5.40
2018-05-24T09:00:36.723Z,5.07
2018-05-24T09:03:02.907Z,5.60
2018-05-24T09:05:29.111Z,5.10
2018-05-24T09:07:55.290Z,4.87
2018-05-24T09:10:22.222Z,5.00
2018-05-24T09:12:48.387Z,5.03
2018-05-24T09:15:14.600Z,5.30
2018-05-24T09:17:40.780Z,4.80
2018-05-24T09:20:07.016Z,5.10
2018-05-24T09:22:33.086Z,5.10
2018-05-24T09:24:59.247Z,5.17
2018-05-24T09:27:25.418Z,5.10
2018-05-24T09:29:51.574Z,5.00
2018-05-24T09:32:17.733Z,5.10
2018-05-24T09:34:43.947Z,5.30
2018-05-24T09:37:10.106Z,5.17
2018-05-24T09:39:37.015Z,5.87
2018-05-24T09:42:03.159Z,5.13
2018-05-24T09:44:29.350Z,5.63
2018-05-24T09:46:55.551Z,5.37
2018-05-24T09:49:22.442Z,5.97
2018-05-24T09:51:48.612Z,5.07
2018-05-24T09:54:14.828Z,6.03
2018-05-24T09:56:40.971Z,5.90
2018-05-24T09:59:07.141Z,5.63
2018-05-24T10:01:33.254Z,5.97
2018-05-24T10:03:59.408Z,5.73
2018-05-24T10:06:26.319Z,6.03
2018-05-24T10:08:52.478Z,6.07
2018-05-24T10:11:18.631Z,6.07
2018-05-24T10:13:44.784Z,5.63
2018-05-24T10:16:11.047Z,5.93
2018-05-24T10:18:37.878Z,6.30
2018-05-24T10:21:04.060Z,6.17
2018-05-24T10:23:30.230Z,6.53
2018-05-24T10:25:56.426Z,6.07
2018-05-24T10:28:23.335Z,6.63
2018-05-24T10:30:49.530Z,6.30
2018-05-24T10:33:15.715Z,6.97
2018-05-24T10:35:41.883Z,6.80
2018-05-24T10:38:08.057Z,6.57
2018-05-24T10:40:34.219Z,7.07
2018-05-24T10:43:00.364Z,6.67
2018-05-24T10:45:26.510Z,6.80
2018-05-24T10:47:52.676Z,6.73
2018-05-24T10:50:18.850Z,6.60
2018-05-24T10:52:45.015Z,7.00
2018-05-24T10:55:11.201Z,6.90
2018-05-24T10:57:37.356Z,6.93
2018-05-24T11:00:04.277Z,6.80
2018-05-24T11:02:30.468Z,7.17
2018-05-24T11:04:56.610Z,7.80
2018-05-24T11:07:22.808Z,7.23
2018-05-24T11:09:49.702Z,7.20
2018-05-24T11:12:15.869Z,7.37
2018-05-24T11:14:42.507Z,7.87
2018-05-24T11:17:08.687Z,8.13
2018-05-24T11:19:34.889Z,7.80
2018-05-24T11:22:01.064Z,7.73
2018-05-24T11:24:27.212Z,7.77
2018-05-24T11:26:53.367Z,7.87
2018-05-24T11:29:19.523Z,7.83
2018-05-24T11:31:46.469Z,7.70
2018-05-24T11:34:12.618Z,8.10
2018-05-24T11:36:38.786Z,8.20
2018-05-24T11:39:04.950Z,8.27
2018-05-24T11:41:31.160Z,8.37
2018-05-24T11:43:57.435Z,8.07
2018-05-24T11:46:23.632Z,8.77
2018-05-24T11:48:49.802Z,8.17
2018-05-24T11:51:16.742Z,9.00
2018-05-24T11:53:42.897Z,8.40
2018-05-24T11:56:09.104Z,8.57
2018-05-24T11:58:35.257Z,9.50
2018-05-24T12:01:01.467Z,10.40
2018-05-24T12:03:27.603Z,10.40
2018-05-24T12:05:55.454Z,9.43
2018-05-24T12:08:21.635Z,8.93
2018-05-24T12:10:47.797Z,8.97
2018-05-24T12:13:13.951Z,10.20
2018-05-24T12:15:40.113Z,9.93
2018-05-24T12:18:06.266Z,9.77
2018-05-24T12:20:32.417Z,9.70
2018-05-24T12:22:58.538Z,10.20
2018-05-24T12:25:24.694Z,9.90
2018-05-24T12:27:51.311Z,9.77
2018-05-24T12:30:17.495Z,9.60
2018-05-24T12:32:43.649Z,9.73
2018-05-24T12:35:10.535Z,10.07
2018-05-24T12:37:36.747Z,10.97
2018-05-24T12:40:03.639Z,10.40
2018-05-24T12:42:29.816Z,10.47
2018-05-24T12:44:55.972Z,10.70
2018-05-24T12:47:22.119Z,10.37
2018-05-24T12:49:49.053Z,10.47
2018-05-24T12:52:15.257Z,10.33
2018-05-24T12:54:41.492Z,11.33
2018-05-24T12:57:08.428Z,11.57
2018-05-24T12:59:34.602Z,11.17
2018-05-24T13:02:00.802Z,11.30
2018-05-24T13:04:27.047Z,10.97
2018-05-24T13:06:53.216Z,10.33
2018-05-24T13:09:19.383Z,11.00
2018-05-24T13:11:45.574Z,11.50
2018-05-24T13:14:11.765Z,11.10
2018-05-24T13:16:37.912Z,11.77
2018-05-24T13:19:04.057Z,11.97
2018-05-24T13:21:31.488Z,11.80
2018-05-24T13:23:57.650Z,11.95
2018-05-24T13:26:23.822Z,11.18
2018-05-24T13:28:49.959Z,11.07
2018-05-24T13:31:16.104Z,11.27
2018-05-24T13:33:42.248Z,11.70
2018-05-24T13:36:09.159Z,12.10
2018-05-24T13:38:35.319Z,11.32
2018-05-24T13:41:01.534Z,11.18
2018-05-24T13:43:28.687Z,11.20
2018-05-24T13:45:54.866Z,11.68
2018-05-24T13:48:21.011Z,11.35
2018-05-24T13:50:47.135Z,10.85
2018-05-24T13:53:13.271Z,11.68
2018-05-24T13:55:39.456Z,11.70
2018-05-24T13:58:05.625Z,10.60
2018-05-24T14:00:31.740Z,11.57
2018-05-24T14:02:57.883Z,11.65
2018-05-24T14:05:24.098Z,11.60
2018-05-24T14:07:50.299Z,11.77
2018-05-24T14:10:31.465Z,12.48
2018-05-24T14:12:57.593Z,12.10
2018-05-24T14:15:23.752Z,12.23
2018-05-24T14:17:49.874Z,11.98
2018-05-24T14:20:15.992Z,11.65
2018-05-24T14:22:42.147Z,11.32
2018-05-24T14:25:08.276Z,11.95
2018-05-24T14:27:34.405Z,12.95
2018-05-24T14:30:00.577Z,11.65
2018-05-24T14:32:27.506Z,10.80
2018-05-24T14:34:53.661Z,10.75
2018-05-24T14:37:19.787Z,10.47
2018-05-24T14:39:45.939Z,10.00
2018-05-24T14:42:12.054Z,8.50
2018-05-24T14:44:38.202Z,8.57
2018-05-24T14:47:04.329Z,6.93
2018-05-24T14:49:30.482Z,7.20
2018-05-24T14:51:56.626Z,6.13
2018-05-24T14:54:23.047Z,5.47
2018-05-24T14:56:49.230Z,6.03
2018-05-24T14:59:15.360Z,5.70
2018-05-24T15:01:41.533Z,6.13
2018-05-24T15:04:07.649Z,5.87
2018-05-24T15:06:33.762Z,6.00
2018-05-24T15:08:59.908Z,5.80
2018-05-24T15:11:26.031Z,6.53
2018-05-24T15:13:52.162Z,6.33
2018-05-24T15:16:18.281Z,6.00
2018-05-24T15:18:44.415Z,6.53
2018-05-24T15:21:10.554Z,7.10
2018-05-24T15:23:36.677Z,6.30
2018-05-24T15:26:02.854Z,7.07
2018-05-24T15:28:28.995Z,7.40
2018-05-24T15:30:55.873Z,7.90
2018-05-24T15:33:22.003Z,8.17
2018-05-24T15:35:48.125Z,7.87
2018-05-24T15:38:14.258Z,8.47
2018-05-24T15:40:40.377Z,8.10
2018-05-24T15:43:06.538Z,7.80
2018-05-24T15:45:32.739Z,8.23
2018-05-24T15:47:58.946Z,7.67
2018-05-24T15:50:25.079Z,8.40
2018-05-24T15:52:51.215Z,8.07
2018-05-24T15:55:18.114Z,8.73
2018-05-24T15:57:44.255Z,9.30
2018-05-24T16:00:10.396Z,8.93
2018-05-24T16:02:36.569Z,8.47
2018-05-24T16:05:02.718Z,8.37
2018-05-24T16:07:28.880Z,8.03
2018-05-24T16:09:55.075Z,8.03
2018-05-24T16:12:21.270Z,8.93
2018-05-24T16:14:47.386Z,8.47
2018-05-24T16:17:13.532Z,7.90
2018-05-24T16:19:39.685Z,8.63
2018-05-24T16:22:05.815Z,8.40
2018-05-24T16:24:31.968Z,8.73
2018-05-24T16:26:58.116Z,8.93
2018-05-24T16:29:24.252Z,8.73
2018-05-24T16:31:50.484Z,9.80
2018-05-24T16:34:17.399Z,9.30
2018-05-24T16:36:43.547Z,9.93
2018-05-24T16:39:09.698Z,9.87
2018-05-24T16:41:35.838Z,10.23
2018-05-24T16:44:02.032Z,10.40
2018-05-24T16:46:28.206Z,9.80
2018-05-24T16:48:54.346Z,10.00
2018-05-24T16:51:20.519Z,9.87
2018-05-24T16:53:46.647Z,10.07
2018-05-24T16:56:12.820Z,10.37
2018-05-24T16:58:39.708Z,9.70
2018-05-24T17:01:05.842Z,9.50
2018-05-24T17:03:32.004Z,9.60
2018-05-24T17:05:58.178Z,9.63
2018-05-24T17:08:24.331Z,9.97
2018-05-24T17:10:50.503Z,9.67
2018-05-24T17:13:16.665Z,10.10
2018-05-24T17:15:42.832Z,10.37
2018-05-24T17:18:08.995Z,9.60
2018-05-24T17:20:36.263Z,10.30
2018-05-24T17:23:02.444Z,9.27
2018-05-24T17:25:28.617Z,9.63
2018-05-24T17:27:54.763Z,10.27
2018-05-24T17:30:20.899Z,9.80
2018-05-24T17:32:47.066Z,9.67
2018-05-24T17:35:13.221Z,8.97
2018-05-24T17:37:39.326Z,9.80
2018-05-24T17:40:05.460Z,10.73
2018-05-24T17:42:31.623Z,10.03
2018-05-24T17:44:57.753Z,10.37
2018-05-24T17:47:23.936Z,9.07
2018-05-24T17:49:50.080Z,10.00
2018-05-24T17:52:16.201Z,9.97
2018-05-24T17:54:42.350Z,10.23
2018-05-24T17:57:08.499Z,10.20
2018-05-24T17:59:34.638Z,10.57
2018-05-24T18:02:01.238Z,10.30
2018-05-24T18:04:27.404Z,11.00
2018-05-24T18:06:53.583Z,10.73
2018-05-24T18:09:19.750Z,9.83
2018-05-24T18:11:45.936Z,11.20
2018-05-24T18:14:12.083Z,11.00
2018-05-24T18:16:38.212Z,10.40
2018-05-24T18:19:04.334Z,10.70
2018-05-24T18:21:30.470Z,10.67
2018-05-24T18:23:56.583Z,9.63
2018-05-24T18:26:22.721Z,10.17
2018-05-24T18:28:48.850Z,10.50
2018-05-24T18:31:14.972Z,10.90
2018-05-24T18:33:41.102Z,10.47
2018-05-24T18:36:07.283Z,10.70
2018-05-24T18:38:33.394Z,11.03
2018-05-24T18:40:59.517Z,10.47
2018-05-24T18:43:25.679Z,11.43
2018-05-24T18:45:51.847Z,11.37
2018-05-24T18:48:18.041Z,11.57
2018-05-24T18:50:44.893Z,11.50
2018-05-24T18:53:11.023Z,10.63
2018-05-24T18:55:37.168Z,11.23
2018-05-24T18:58:03.294Z,11.17
2018-05-24T19:00:29.452Z,10.67
2018-05-24T19:02:55.622Z,11.00
2018-05-24T19:05:21.754Z,11.07
2018-05-24T19:07:47.886Z,10.93
2018-05-24T19:10:14.046Z,11.33
2018-05-24T19:12:40.224Z,11.80
2018-05-24T19:15:06.339Z,11.87
2018-05-24T19:17:32.460Z,11.50
2018-05-24T19:19:58.637Z,11.63
2018-05-24T19:22:24.745Z,11.50
2018-05-24T19:24:50.921Z,11.43
2018-05-24T19:27:17.821Z,11.20
2018-05-24T19:29:43.974Z,11.20
2018-05-24T19:32:10.103Z,10.67
2018-05-24T19:34:36.222Z,10.80
2018-05-24T19:37:02.340Z,12.37
2018-05-24T19:39:28.497Z,11.30
2018-05-24T19:41:54.671Z,12.00
2018-05-24T19:44:21.577Z,11.23
2018-05-24T19:46:47.751Z,11.63
2018-05-24T19:49:13.939Z,11.63
2018-05-24T19:51:40.119Z,11.80
2018-05-24T19:54:06.283Z,11.80
2018-05-24T19:56:32.491Z,11.63
2018-05-24T19:58:59.684Z,12.37
2018-05-24T20:01:25.865Z,12.33
2018-05-24T20:03:51.975Z,12.67
2018-05-24T20:06:18.108Z,12.10
2018-05-24T20:08:44.241Z,12.00
2018-05-24T20:11:10.430Z,12.20
2018-05-24T20:13:36.631Z,12.47
2018-05-24T20:16:02.767Z,12.80
2018-05-24T20:18:28.930Z,12.80
2018-05-24T20:20:55.104Z,12.83
2018-05-24T20:23:21.344Z,13.57
2018-05-24T20:25:47.523Z,12.87
2018-05-24T20:28:13.699Z,13.57
2018-05-24T20:30:39.824Z,13.77
2018-05-24T20:33:05.986Z,14.10
2018-05-24T20:35:32.212Z,13.20
2018-05-24T20:37:58.321Z,13.80
2018-05-24T20:40:24.513Z,14.00
2018-05-24T20:42:50.654Z,13.70
2018-05-24T20:45:16.783Z,14.43
2018-05-24T20:47:42.914Z,14.70
2018-05-24T20:50:09.091Z,14.47
2018-05-24T20:52:35.285Z,14.10
2018-05-24T20:55:01.434Z,14.10
2018-05-24T20:57:27.562Z,14.10
2018-05-24T20:59:53.696Z,14.33
2018-05-24T21:02:19.827Z,15.07
2018-05-24T21:04:46.041Z,14.70
2018-05-24T21:07:12.959Z,13.67
2018-05-24T21:09:39.832Z,14.23
2018-05-24T21:12:06.001Z,14.83
2018-05-24T21:14:32.146Z,14.63
2018-05-24T21:16:58.309Z,14.83
2018-05-24T21:19:25.187Z,14.43
2018-05-24T21:21:51.329Z,13.60
2018-05-24T21:24:17.444Z,13.83
2018-05-24T21:26:43.574Z,14.00
2018-05-24T21:29:09.714Z,13.80
2018-05-24T21:31:35.853Z,14.40
2018-05-24T21:34:01.968Z,14.13
2018-05-24T21:36:28.100Z,14.50
2018-05-24T21:38:54.226Z,13.83
2018-05-24T21:41:20.371Z,14.33
2018-05-24T21:43:46.553Z,13.53
2018-05-24T21:46:12.763Z,14.13
2018-05-24T21:48:38.882Z,14.47
2018-05-24T21:51:05.048Z,14.33
2018-05-24T21:53:31.173Z,14.30
2018-05-24T21:55:57.310Z,14.83
2018-05-24T21:58:23.447Z,14.47
2018-05-24T22:00:50.467Z,14.10
2018-05-24T22:03:16.585Z,14.80
2018-05-24T22:05:42.739Z,14.80
2018-05-24T22:08:08.938Z,14.97
2018-05-24T22:10:35.054Z,14.43
2018-05-24T22:13:01.186Z,14.87
2018-05-24T22:15:27.311Z,15.23
2018-05-24T22:17:53.426Z,15.10
2018-05-24T22:20:19.681Z,15.27
2018-05-24T22:22:46.526Z,15.30
2018-05-24T22:25:12.682Z,15.90
2018-05-24T22:27:38.778Z,15.93
2018-05-24T22:30:04.934Z,15.87
2018-05-24T22:32:31.079Z,15.50
2018-05-24T22:34:57.202Z,16.23
2018-05-24T22:37:23.363Z,15.40
2018-05-24T22:39:49.494Z,15.93
2018-05-24T22:42:15.648Z,16.57
2018-05-24T22:44:41.811Z,15.77
2018-05-24T22:47:07.989Z,16.13
2018-05-24T22:49:34.136Z,16.13
2018-05-24T22:52:00.286Z,15.77
2018-05-24T22:54:26.467Z,15.63
2018-05-24T22:56:52.602Z,15.40
2018-05-24T22:59:18.743Z,16.33
2018-05-24T23:01:44.894Z,16.30
2018-05-24T23:04:11.047Z,16.03
2018-05-24T23:06:37.215Z,16.10
2018-05-24T23:09:03.395Z,16.83
2018-05-24T23:11:29.558Z,16.97
2018-05-24T23:13:55.734Z,17.87
2018-05-24T23:16:21.929Z,17.77
2018-05-24T23:18:48.074Z,18.20
2018-05-24T23:21:14.239Z,18.53
2018-05-24T23:23:40.394Z,18.80
2018-05-24T23:26:06.563Z,17.57
2018-05-24T23:28:32.722Z,18.83
2018-05-24T23:30:58.894Z,18.03
2018-05-24T23:33:25.046Z,18.20
2018-05-24T23:35:51.182Z,18.07
2018-05-24T23:38:17.326Z,18.30
2018-05-24T23:40:43.475Z,19.07
2018-05-24T23:43:09.666Z,18.20
2018-05-24T23:45:35.783Z,20.27
2018-05-24T23:48:02.682Z,18.80
2018-05-24T23:50:28.826Z,19.00
2018-05-24T23:52:54.962Z,19.30
2018-05-24T23:55:21.165Z,20.13
2018-05-24T23:57:47.329Z,18.80
